Archival Weather

Sydney Intl

Sydney, Australia (YSSY)

Report from: Wednesday, September 20, 2023 9:00 PM AEST
Current time: Sunday, July 14, 2024 12:07 PM AEST

Current weather – Weather history – Daily summaries
Weather forecast

Temperature26.0°C (78.8°F)
Dew point5.0°C (41.0°F)
Winds 7 kts (3.6 m/s, 8.1 mph) South-Southeast (160°)
Clouds Sky clear
Altimeter29.77 in.Hg (1008 mB)
Relative humidity26 %
Density altitude1,578 ft. (481 m)
Remarks Ceiling and visibility OK
Flight conditions Visual Meteorological Conditions
Raw dataYSSY 201100Z 16007KT CAVOK 26/05 Q1008
An error has occurred. This application may no longer respond until reloaded. Reload 🗙